Portada
METAR-TAF:

METAR-TAF

Aeroports :

Dakar, Senegal

latitud: 14-44N, longitud: 017-30W, altitud: 27 m

Observació

L'informe es va fer fa 27 minuts, a les 03:00 UTC
Vent 8 kt del Nord
Temperatura 21°C
Humitat 88%
Pressió 1012 hPa
Visibilitat: 8000 m

METAR: GOOY 270300Z 36008KT 8000 NSC 21/19 Q1012 NOSIG

Hora: 03:27 (03:27 UTC)

Pronòstic

L'informe es va fer fa 3 hores i 57 minuts, a les 23:30 UTC
Pronòstic vàlid del 27 a les 00 UTC al 28 a les 06 UTC
Vent 10 kt del Nord
Visibilitat 10 km o més
Núvols disperses a una alçada de 800 ft
Probabilitat 40% :
Temporalment
l' 27 a les 03 UTC al 27 a les 09 UTC
Cel ennuvolat a una alçada de 600 ft

TAF: GOOY 262330Z 2700/2806 35010KT 9999 SCT008 PROB40 TEMPO 2703/2709 BKN006

Observacions i pronòstics meteorològics de més de 4000 aeroports (METAR i TAF).

Les estacions disponibles són els punts grocs i vermells al mapa.

Posi el ratolí al punt desitjat per veure el nom de l'estació.

Feu clic per veure les observacions i els pronòstics meteorològics.

Per canviar el mapa: feu clic els botons verds amb una creu de color negre per apropar; al botó verd amb un guió per allunyar la imatge; o en les fletxes verdes per a mapes adjacents.


METAR-TAF: